Terminal Aerodrome Forecast
Issued by NWS

Home | Current Version | Previous Version | Text Only | Print | Product List | Glossary On
Versions: 1 2 3 4 5 6 7 8 9 10 11 12 13 14 15 16 17
000
FTUS42 KMLB 192300
TAFISM
TAF
KISM 192339Z 2000/2024 07006KT P6SM FEW050 SCT300
     FM200300 02003KT P6SM SCT025 SCT300
      TEMPO 2010/2012 5SM MIFG BR
     FM201400 10004KT P6SM SCT035 BKN300
     FM201800 13006KT P6SM SCT045 BKN300
      AMD NOT SKED 2002/2011=

USA.gov is the U.S. government's official web portal to all federal, state and local government web resources and services.